sensor_id;sensor_type;location;lat;lon;timestamp;P1;durP1;ratioP1;P2;durP2;ratioP2
11865;SDS011;5992;52.744;6.898;2022-10-22T00:01:48;2.70;;;2.20;;
11865;SDS011;5992;52.744;6.898;2022-10-22T00:05:03;2.50;;;1.93;;
11865;SDS011;5992;52.744;6.898;2022-10-22T00:08:16;4.85;;;2.45;;
11865;SDS011;5992;52.744;6.898;2022-10-22T00:11:37;4.00;;;2.47;;
11865;SDS011;5992;52.744;6.898;2022-10-22T00:14:52;2.10;;;2.00;;
11865;SDS011;5992;52.744;6.898;2022-10-22T00:21:32;2.27;;;2.07;;
11865;SDS011;5992;52.744;6.898;2022-10-22T00:24:45;2.30;;;2.10;;
11865;SDS011;5992;52.744;6.898;2022-10-22T00:27:47;1.90;;;1.80;;
11865;SDS011;5992;52.744;6.898;2022-10-22T00:31:14;2.25;;;2.05;;
11865;SDS011;5992;52.744;6.898;2022-10-22T00:34:14;2.00;;;1.80;;
11865;SDS011;5992;52.744;6.898;2022-10-22T00:37:45;2.53;;;1.97;;
11865;SDS011;5992;52.744;6.898;2022-10-22T00:40:48;3.30;;;2.37;;
11865;SDS011;5992;52.744;6.898;2022-10-22T00:47:19;2.40;;;2.20;;
11865;SDS011;5992;52.744;6.898;2022-10-22T00:50:43;2.70;;;1.83;;
11865;SDS011;5992;52.744;6.898;2022-10-22T00:53:59;2.10;;;2.00;;
11865;SDS011;5992;52.744;6.898;2022-10-22T00:57:25;1.95;;;1.80;;
11865;SDS011;5992;52.744;6.898;2022-10-22T01:00:40;2.20;;;1.90;;
11865;SDS011;5992;52.744;6.898;2022-10-22T01:04:10;1.90;;;1.80;;
11865;SDS011;5992;52.744;6.898;2022-10-22T01:07:24;2.07;;;1.70;;
11865;SDS011;5992;52.744;6.898;2022-10-22T01:10:51;2.65;;;2.45;;
11865;SDS011;5992;52.744;6.898;2022-10-22T01:14:03;2.00;;;1.90;;
11865;SDS011;5992;52.744;6.898;2022-10-22T01:17:31;2.20;;;2.00;;
11865;SDS011;5992;52.744;6.898;2022-10-22T01:21:02;2.30;;;2.10;;
11865;SDS011;5992;52.744;6.898;2022-10-22T01:24:33;1.70;;;1.60;;
11865;SDS011;5992;52.744;6.898;2022-10-22T01:31:14;2.20;;;2.00;;
11865;SDS011;5992;52.744;6.898;2022-10-22T01:34:29;2.35;;;2.10;;
11865;SDS011;5992;52.744;6.898;2022-10-22T01:37:57;2.20;;;1.77;;
11865;SDS011;5992;52.744;6.898;2022-10-22T01:41:11;2.27;;;1.67;;
11865;SDS011;5992;52.744;6.898;2022-10-22T01:44:42;2.17;;;1.77;;
11865;SDS011;5992;52.744;6.898;2022-10-22T01:47:47;2.33;;;1.70;;
11865;SDS011;5992;52.744;6.898;2022-10-22T01:51:23;1.55;;;1.45;;
11865;SDS011;5992;52.744;6.898;2022-10-22T01:54:34;3.00;;;2.20;;
11865;SDS011;5992;52.744;6.898;2022-10-22T01:58:07;1.93;;;1.83;;
11865;SDS011;5992;52.744;6.898;2022-10-22T02:01:22;1.77;;;1.67;;
11865;SDS011;5992;52.744;6.898;2022-10-22T02:04:55;9.40;;;2.00;;
11865;SDS011;5992;52.744;6.898;2022-10-22T02:08:11;3.73;;;2.40;;
11865;SDS011;5992;52.744;6.898;2022-10-22T02:11:33;4.47;;;2.30;;
11865;SDS011;5992;52.744;6.898;2022-10-22T02:14:52;2.87;;;1.67;;
11865;SDS011;5992;52.744;6.898;2022-10-22T02:18:18;5.20;;;2.75;;
11865;SDS011;5992;52.744;6.898;2022-10-22T02:21:31;2.73;;;1.90;;
11865;SDS011;5992;52.744;6.898;2022-10-22T02:24:58;2.30;;;2.10;;
11865;SDS011;5992;52.744;6.898;2022-10-22T02:28:15;4.33;;;2.77;;
11865;SDS011;5992;52.744;6.898;2022-10-22T02:31:42;3.23;;;1.90;;
11865;SDS011;5992;52.744;6.898;2022-10-22T02:34:54;1.70;;;1.60;;
11865;SDS011;5992;52.744;6.898;2022-10-22T02:38:25;4.30;;;2.10;;
11865;SDS011;5992;52.744;6.898;2022-10-22T02:41:41;2.00;;;1.80;;
11865;SDS011;5992;52.744;6.898;2022-10-22T02:45:05;1.73;;;1.63;;
11865;SDS011;5992;52.744;6.898;2022-10-22T02:48:20;1.87;;;1.53;;
11865;SDS011;5992;52.744;6.898;2022-10-22T02:51:36;2.77;;;1.77;;
11865;SDS011;5992;52.744;6.898;2022-10-22T02:54:43;1.95;;;1.80;;
11865;SDS011;5992;52.744;6.898;2022-10-22T02:58:08;1.60;;;1.50;;
11865;SDS011;5992;52.744;6.898;2022-10-22T03:01:12;2.77;;;2.23;;
11865;SDS011;5992;52.744;6.898;2022-10-22T03:04:27;2.17;;;1.77;;
11865;SDS011;5992;52.744;6.898;2022-10-22T03:07:34;1.67;;;1.57;;
11865;SDS011;5992;52.744;6.898;2022-10-22T03:10:48;9.77;;;1.70;;
11865;SDS011;5992;52.744;6.898;2022-10-22T03:14:01;1.70;;;1.60;;
11865;SDS011;5992;52.744;6.898;2022-10-22T03:17:19;1.87;;;1.77;;
11865;SDS011;5992;52.744;6.898;2022-10-22T03:20:20;1.67;;;1.57;;
11865;SDS011;5992;52.744;6.898;2022-10-22T03:23:32;2.10;;;1.90;;
11865;SDS011;5992;52.744;6.898;2022-10-22T03:26:45;1.73;;;1.63;;
11865;SDS011;5992;52.744;6.898;2022-10-22T03:30:13;1.83;;;1.67;;
11865;SDS011;5992;52.744;6.898;2022-10-22T03:33:16;3.25;;;2.55;;
11865;SDS011;5992;52.744;6.898;2022-10-22T03:36:31;1.50;;;1.40;;
11865;SDS011;5992;52.744;6.898;2022-10-22T03:39:49;1.60;;;1.50;;
11865;SDS011;5992;52.744;6.898;2022-10-22T03:43:18;2.10;;;1.90;;
11865;SDS011;5992;52.744;6.898;2022-10-22T03:46:37;1.70;;;1.60;;
11865;SDS011;5992;52.744;6.898;2022-10-22T03:49:49;1.70;;;1.60;;
11865;SDS011;5992;52.744;6.898;2022-10-22T03:52:52;1.80;;;1.63;;
11865;SDS011;5992;52.744;6.898;2022-10-22T03:56:07;1.60;;;1.50;;
11865;SDS011;5992;52.744;6.898;2022-10-22T03:59:20;1.85;;;1.75;;
11865;SDS011;5992;52.744;6.898;2022-10-22T04:02:40;3.13;;;2.13;;
11865;SDS011;5992;52.744;6.898;2022-10-22T04:05:52;1.90;;;1.80;;
11865;SDS011;5992;52.744;6.898;2022-10-22T04:08:52;1.87;;;1.70;;
11865;SDS011;5992;52.744;6.898;2022-10-22T04:12:07;2.00;;;1.80;;
11865;SDS011;5992;52.744;6.898;2022-10-22T04:15:26;1.60;;;1.50;;
11865;SDS011;5992;52.744;6.898;2022-10-22T04:18:51;3.00;;;2.70;;
11865;SDS011;5992;52.744;6.898;2022-10-22T04:22:03;1.97;;;1.87;;
11865;SDS011;5992;52.744;6.898;2022-10-22T04:25:19;2.60;;;2.40;;
11865;SDS011;5992;52.744;6.898;2022-10-22T04:28:22;2.67;;;1.83;;
11865;SDS011;5992;52.744;6.898;2022-10-22T04:31:36;2.45;;;2.15;;
11865;SDS011;5992;52.744;6.898;2022-10-22T04:34:49;3.15;;;2.35;;
11865;SDS011;5992;52.744;6.898;2022-10-22T04:38:07;2.33;;;2.13;;
11865;SDS011;5992;52.744;6.898;2022-10-22T04:41:08;2.50;;;1.97;;
11865;SDS011;5992;52.744;6.898;2022-10-22T04:44:35;1.83;;;1.73;;
11865;SDS011;5992;52.744;6.898;2022-10-22T04:47:36;2.17;;;1.97;;
11865;SDS011;5992;52.744;6.898;2022-10-22T04:51:07;2.00;;;1.90;;
11865;SDS011;5992;52.744;6.898;2022-10-22T04:54:21;4.15;;;1.90;;
11865;SDS011;5992;52.744;6.898;2022-10-22T04:57:40;3.50;;;2.85;;
11865;SDS011;5992;52.744;6.898;2022-10-22T05:00:40;2.27;;;2.07;;
11865;SDS011;5992;52.744;6.898;2022-10-22T05:04:05;1.63;;;1.53;;
11865;SDS011;5992;52.744;6.898;2022-10-22T05:07:21;4.13;;;2.30;;
11865;SDS011;5992;52.744;6.898;2022-10-22T05:10:43;4.33;;;2.57;;
11865;SDS011;5992;52.744;6.898;2022-10-22T05:13:46;3.73;;;2.53;;
11865;SDS011;5992;52.744;6.898;2022-10-22T05:17:11;3.35;;;2.80;;
11865;SDS011;5992;52.744;6.898;2022-10-22T05:20:12;2.25;;;2.00;;
11865;SDS011;5992;52.744;6.898;2022-10-22T05:23:41;3.53;;;2.63;;
11865;SDS011;5992;52.744;6.898;2022-10-22T05:26:57;4.30;;;1.80;;
11865;SDS011;5992;52.744;6.898;2022-10-22T05:30:21;2.73;;;2.53;;
11865;SDS011;5992;52.744;6.898;2022-10-22T05:33:25;2.60;;;2.30;;
11865;SDS011;5992;52.744;6.898;2022-10-22T05:36:53;7.30;;;2.97;;
11865;SDS011;5992;52.744;6.898;2022-10-22T05:40:05;8.03;;;2.53;;
11865;SDS011;5992;52.744;6.898;2022-10-22T05:43:18;2.43;;;2.00;;
11865;SDS011;5992;52.744;6.898;2022-10-22T05:46:22;3.03;;;2.27;;
11865;SDS011;5992;52.744;6.898;2022-10-22T05:49:45;3.23;;;2.27;;
11865;SDS011;5992;52.744;6.898;2022-10-22T05:52:50;2.70;;;2.50;;
11865;SDS011;5992;52.744;6.898;2022-10-22T05:56:18;3.40;;;3.10;;
11865;SDS011;5992;52.744;6.898;2022-10-22T05:59:39;5.93;;;3.10;;
11865;SDS011;5992;52.744;6.898;2022-10-22T06:02:42;7.13;;;2.67;;
11865;SDS011;5992;52.744;6.898;2022-10-22T06:05:54;2.90;;;2.67;;
11865;SDS011;5992;52.744;6.898;2022-10-22T06:08:58;2.63;;;2.43;;
11865;SDS011;5992;52.744;6.898;2022-10-22T06:12:26;4.00;;;2.50;;
11865;SDS011;5992;52.744;6.898;2022-10-22T06:15:29;4.87;;;3.23;;
11865;SDS011;5992;52.744;6.898;2022-10-22T06:18:42;4.23;;;3.20;;
11865;SDS011;5992;52.744;6.898;2022-10-22T06:21:46;8.27;;;3.47;;
11865;SDS011;5992;52.744;6.898;2022-10-22T06:25:11;7.10;;;3.90;;
11865;SDS011;5992;52.744;6.898;2022-10-22T06:28:32;4.60;;;2.83;;
11865;SDS011;5992;52.744;6.898;2022-10-22T06:32:06;6.33;;;3.27;;
11865;SDS011;5992;52.744;6.898;2022-10-22T06:35:15;5.13;;;3.20;;
11865;SDS011;5992;52.744;6.898;2022-10-22T06:38:30;9.00;;;4.20;;
11865;SDS011;5992;52.744;6.898;2022-10-22T06:41:32;5.90;;;4.00;;
11865;SDS011;5992;52.744;6.898;2022-10-22T06:45:00;4.25;;;2.90;;
11865;SDS011;5992;52.744;6.898;2022-10-22T06:48:03;5.80;;;3.50;;
11865;SDS011;5992;52.744;6.898;2022-10-22T06:51:22;10.50;;;4.43;;
11865;SDS011;5992;52.744;6.898;2022-10-22T06:54:37;7.80;;;3.35;;
11865;SDS011;5992;52.744;6.898;2022-10-22T06:57:54;6.30;;;3.55;;
11865;SDS011;5992;52.744;6.898;2022-10-22T07:01:10;5.75;;;4.00;;
11865;SDS011;5992;52.744;6.898;2022-10-22T07:04:33;7.90;;;3.77;;
11865;SDS011;5992;52.744;6.898;2022-10-22T07:07:36;7.07;;;4.00;;
11865;SDS011;5992;52.744;6.898;2022-10-22T07:10:55;8.73;;;4.70;;
11865;SDS011;5992;52.744;6.898;2022-10-22T07:14:08;7.50;;;4.03;;
11865;SDS011;5992;52.744;6.898;2022-10-22T07:17:35;6.50;;;3.70;;
11865;SDS011;5992;52.744;6.898;2022-10-22T07:20:38;8.63;;;3.60;;
11865;SDS011;5992;52.744;6.898;2022-10-22T07:23:50;5.57;;;3.67;;
11865;SDS011;5992;52.744;6.898;2022-10-22T07:27:08;8.80;;;3.93;;
11865;SDS011;5992;52.744;6.898;2022-10-22T07:30:25;6.77;;;4.10;;
11865;SDS011;5992;52.744;6.898;2022-10-22T07:33:39;7.40;;;3.85;;
11865;SDS011;5992;52.744;6.898;2022-10-22T07:37:07;7.95;;;4.05;;
11865;SDS011;5992;52.744;6.898;2022-10-22T07:40:11;5.85;;;3.15;;
11865;SDS011;5992;52.744;6.898;2022-10-22T07:43:24;6.30;;;3.63;;
11865;SDS011;5992;52.744;6.898;2022-10-22T07:46:37;7.67;;;4.00;;
11865;SDS011;5992;52.744;6.898;2022-10-22T07:50:05;8.83;;;3.50;;
11865;SDS011;5992;52.744;6.898;2022-10-22T07:53:20;5.85;;;3.55;;
11865;SDS011;5992;52.744;6.898;2022-10-22T07:56:32;8.40;;;4.70;;
11865;SDS011;5992;52.744;6.898;2022-10-22T07:59:32;8.35;;;3.95;;
11865;SDS011;5992;52.744;6.898;2022-10-22T08:02:47;9.37;;;3.87;;
11865;SDS011;5992;52.744;6.898;2022-10-22T08:06:12;12.07;;;4.07;;
11865;SDS011;5992;52.744;6.898;2022-10-22T08:09:33;5.43;;;3.60;;
11865;SDS011;5992;52.744;6.898;2022-10-22T08:13:00;7.20;;;3.33;;
11865;SDS011;5992;52.744;6.898;2022-10-22T08:16:06;3.55;;;3.00;;
11865;SDS011;5992;52.744;6.898;2022-10-22T08:19:31;7.57;;;2.90;;
11865;SDS011;5992;52.744;6.898;2022-10-22T08:22:50;6.60;;;3.05;;
11865;SDS011;5992;52.744;6.898;2022-10-22T08:26:06;5.67;;;3.17;;
11865;SDS011;5992;52.744;6.898;2022-10-22T08:29:12;7.10;;;3.23;;
11865;SDS011;5992;52.744;6.898;2022-10-22T08:32:33;5.25;;;3.25;;
11865;SDS011;5992;52.744;6.898;2022-10-22T08:35:37;6.23;;;3.30;;
11865;SDS011;5992;52.744;6.898;2022-10-22T08:39:05;8.70;;;4.10;;
11865;SDS011;5992;52.744;6.898;2022-10-22T08:42:14;11.13;;;4.37;;
11865;SDS011;5992;52.744;6.898;2022-10-22T08:45:33;7.80;;;3.87;;
11865;SDS011;5992;52.744;6.898;2022-10-22T08:48:51;7.97;;;3.97;;
11865;SDS011;5992;52.744;6.898;2022-10-22T08:52:19;7.70;;;4.10;;
11865;SDS011;5992;52.744;6.898;2022-10-22T08:55:35;3.95;;;3.10;;
11865;SDS011;5992;52.744;6.898;2022-10-22T08:59:03;6.87;;;3.23;;
11865;SDS011;5992;52.744;6.898;2022-10-22T09:02:21;8.15;;;3.20;;
11865;SDS011;5992;52.744;6.898;2022-10-22T09:05:46;3.03;;;2.73;;
11865;SDS011;5992;52.744;6.898;2022-10-22T09:08:58;5.17;;;2.93;;
11865;SDS011;5992;52.744;6.898;2022-10-22T09:12:22;9.30;;;3.30;;
11865;SDS011;5992;52.744;6.898;2022-10-22T09:15:37;3.20;;;2.90;;
11865;SDS011;5992;52.744;6.898;2022-10-22T09:18:52;5.73;;;2.67;;
11865;SDS011;5992;52.744;6.898;2022-10-22T09:22:09;15.35;;;3.40;;
11865;SDS011;5992;52.744;6.898;2022-10-22T09:25:37;9.20;;;2.90;;
11865;SDS011;5992;52.744;6.898;2022-10-22T09:28:57;5.73;;;2.80;;
11865;SDS011;5992;52.744;6.898;2022-10-22T09:32:26;6.75;;;2.65;;
11865;SDS011;5992;52.744;6.898;2022-10-22T09:35:45;6.95;;;2.70;;
11865;SDS011;5992;52.744;6.898;2022-10-22T09:39:20;4.37;;;2.90;;
11865;SDS011;5992;52.744;6.898;2022-10-22T09:42:33;4.77;;;2.67;;
11865;SDS011;5992;52.744;6.898;2022-10-22T09:46:02;7.50;;;2.70;;
11865;SDS011;5992;52.744;6.898;2022-10-22T09:49:13;3.50;;;2.20;;
11865;SDS011;5992;52.744;6.898;2022-10-22T09:52:40;5.90;;;2.40;;
11865;SDS011;5992;52.744;6.898;2022-10-22T09:55:40;10.47;;;2.83;;
11865;SDS011;5992;52.744;6.898;2022-10-22T09:59:11;4.57;;;3.07;;
11865;SDS011;5992;52.744;6.898;2022-10-22T10:02:22;4.13;;;2.30;;
11865;SDS011;5992;52.744;6.898;2022-10-22T10:05:51;3.60;;;2.15;;
11865;SDS011;5992;52.744;6.898;2022-10-22T10:09:05;6.63;;;2.93;;
11865;SDS011;5992;52.744;6.898;2022-10-22T10:12:36;6.95;;;3.20;;
11865;SDS011;5992;52.744;6.898;2022-10-22T10:15:49;7.87;;;2.60;;
11865;SDS011;5992;52.744;6.898;2022-10-22T10:19:29;4.93;;;2.90;;
11865;SDS011;5992;52.744;6.898;2022-10-22T10:22:45;5.53;;;2.77;;
11865;SDS011;5992;52.744;6.898;2022-10-22T10:26:08;5.53;;;2.27;;
11865;SDS011;5992;52.744;6.898;2022-10-22T10:29:26;5.80;;;2.80;;
11865;SDS011;5992;52.744;6.898;2022-10-22T10:33:10;5.00;;;2.53;;
11865;SDS011;5992;52.744;6.898;2022-10-22T10:36:26;3.10;;;2.10;;
11865;SDS011;5992;52.744;6.898;2022-10-22T10:40:00;2.87;;;2.10;;
11865;SDS011;5992;52.744;6.898;2022-10-22T10:43:33;6.03;;;2.90;;
11865;SDS011;5992;52.744;6.898;2022-10-22T10:47:02;3.70;;;2.30;;
11865;SDS011;5992;52.744;6.898;2022-10-22T10:50:17;8.40;;;2.70;;
11865;SDS011;5992;52.744;6.898;2022-10-22T10:53:47;4.70;;;2.25;;
11865;SDS011;5992;52.744;6.898;2022-10-22T10:56:59;3.63;;;2.20;;
11865;SDS011;5992;52.744;6.898;2022-10-22T11:00:30;2.60;;;2.13;;
11865;SDS011;5992;52.744;6.898;2022-10-22T11:03:52;5.97;;;2.37;;
11865;SDS011;5992;52.744;6.898;2022-10-22T11:07:19;2.93;;;2.30;;
11865;SDS011;5992;52.744;6.898;2022-10-22T11:10:38;5.43;;;2.40;;
11865;SDS011;5992;52.744;6.898;2022-10-22T11:14:04;7.50;;;2.80;;
11865;SDS011;5992;52.744;6.898;2022-10-22T11:17:14;5.73;;;2.47;;
11865;SDS011;5992;52.744;6.898;2022-10-22T11:20:42;8.40;;;2.93;;
11865;SDS011;5992;52.744;6.898;2022-10-22T11:23:54;3.30;;;1.80;;
11865;SDS011;5992;52.744;6.898;2022-10-22T11:27:20;4.23;;;3.13;;
11865;SDS011;5992;52.744;6.898;2022-10-22T11:30:32;5.83;;;1.97;;
11865;SDS011;5992;52.744;6.898;2022-10-22T11:34:00;4.20;;;1.95;;
11865;SDS011;5992;52.744;6.898;2022-10-22T11:37:14;4.23;;;2.00;;
11865;SDS011;5992;52.744;6.898;2022-10-22T11:40:42;10.97;;;2.40;;
11865;SDS011;5992;52.744;6.898;2022-10-22T11:44:04;6.30;;;2.30;;
11865;SDS011;5992;52.744;6.898;2022-10-22T11:47:38;6.60;;;2.33;;
11865;SDS011;5992;52.744;6.898;2022-10-22T11:50:50;4.30;;;2.50;;
11865;SDS011;5992;52.744;6.898;2022-10-22T11:54:25;3.13;;;2.17;;
11865;SDS011;5992;52.744;6.898;2022-10-22T11:57:46;5.90;;;2.03;;
11865;SDS011;5992;52.744;6.898;2022-10-22T12:01:22;4.17;;;2.40;;
11865;SDS011;5992;52.744;6.898;2022-10-22T12:04:50;4.25;;;2.60;;
11865;SDS011;5992;52.744;6.898;2022-10-22T12:07:52;6.95;;;2.60;;
11865;SDS011;5992;52.744;6.898;2022-10-22T12:11:19;3.67;;;2.27;;
11865;SDS011;5992;52.744;6.898;2022-10-22T12:14:36;7.77;;;3.13;;
11865;SDS011;5992;52.744;6.898;2022-10-22T12:18:04;3.90;;;2.50;;
11865;SDS011;5992;52.744;6.898;2022-10-22T12:21:18;3.67;;;2.30;;
11865;SDS011;5992;52.744;6.898;2022-10-22T12:24:34;4.35;;;2.40;;
11865;SDS011;5992;52.744;6.898;2022-10-22T12:27:48;6.23;;;2.67;;
11865;SDS011;5992;52.744;6.898;2022-10-22T12:31:15;6.15;;;2.70;;
11865;SDS011;5992;52.744;6.898;2022-10-22T12:34:27;5.83;;;2.80;;
11865;SDS011;5992;52.744;6.898;2022-10-22T12:37:43;3.37;;;2.70;;
11865;SDS011;5992;52.744;6.898;2022-10-22T12:40:58;8.40;;;2.00;;
11865;SDS011;5992;52.744;6.898;2022-10-22T12:44:14;4.13;;;2.70;;
11865;SDS011;5992;52.744;6.898;2022-10-22T12:47:46;6.65;;;2.45;;
11865;SDS011;5992;52.744;6.898;2022-10-22T12:51:14;4.17;;;2.43;;
11865;SDS011;5992;52.744;6.898;2022-10-22T12:54:34;3.57;;;2.17;;
11865;SDS011;5992;52.744;6.898;2022-10-22T12:57:58;4.53;;;2.30;;
11865;SDS011;5992;52.744;6.898;2022-10-22T13:00:59;3.40;;;2.23;;
11865;SDS011;5992;52.744;6.898;2022-10-22T13:07:38;5.60;;;2.25;;
11865;SDS011;5992;52.744;6.898;2022-10-22T13:11:11;7.70;;;2.30;;
11865;SDS011;5992;52.744;6.898;2022-10-22T13:14:16;5.50;;;1.90;;
11865;SDS011;5992;52.744;6.898;2022-10-22T13:17:41;9.80;;;2.60;;
11865;SDS011;5992;52.744;6.898;2022-10-22T13:20:49;6.20;;;2.57;;
11865;SDS011;5992;52.744;6.898;2022-10-22T13:24:20;5.60;;;2.40;;
11865;SDS011;5992;52.744;6.898;2022-10-22T13:27:32;4.60;;;2.35;;
11865;SDS011;5992;52.744;6.898;2022-10-22T13:30:51;5.57;;;2.40;;
11865;SDS011;5992;52.744;6.898;2022-10-22T13:34:06;7.07;;;2.40;;
11865;SDS011;5992;52.744;6.898;2022-10-22T13:37:33;4.43;;;2.27;;
11865;SDS011;5992;52.744;6.898;2022-10-22T13:40:34;3.00;;;2.00;;
11865;SDS011;5992;52.744;6.898;2022-10-22T13:44:02;2.03;;;1.60;;
11865;SDS011;5992;52.744;6.898;2022-10-22T13:47:06;7.23;;;2.23;;
11865;SDS011;5992;52.744;6.898;2022-10-22T13:50:34;3.90;;;2.07;;
11865;SDS011;5992;52.744;6.898;2022-10-22T13:53:34;5.05;;;1.60;;
11865;SDS011;5992;52.744;6.898;2022-10-22T13:57:08;5.33;;;1.90;;
11865;SDS011;5992;52.744;6.898;2022-10-22T14:00:26;4.10;;;2.10;;
11865;SDS011;5992;52.744;6.898;2022-10-22T14:06:57;6.70;;;1.80;;
11865;SDS011;5992;52.744;6.898;2022-10-22T14:10:16;4.75;;;1.90;;
11865;SDS011;5992;52.744;6.898;2022-10-22T14:13:31;4.90;;;1.80;;
11865;SDS011;5992;52.744;6.898;2022-10-22T14:16:55;5.33;;;1.83;;
11865;SDS011;5992;52.744;6.898;2022-10-22T14:19:55;2.45;;;1.60;;
11865;SDS011;5992;52.744;6.898;2022-10-22T14:23:12;2.80;;;1.80;;
11865;SDS011;5992;52.744;6.898;2022-10-22T14:26:27;5.05;;;1.95;;
11865;SDS011;5992;52.744;6.898;2022-10-22T14:29:54;3.63;;;1.90;;
11865;SDS011;5992;52.744;6.898;2022-10-22T14:33:09;6.25;;;1.70;;
11865;SDS011;5992;52.744;6.898;2022-10-22T14:36:37;5.40;;;1.57;;
11865;SDS011;5992;52.744;6.898;2022-10-22T14:39:52;5.07;;;1.43;;
11865;SDS011;5992;52.744;6.898;2022-10-22T14:43:10;5.57;;;1.40;;
11865;SDS011;5992;52.744;6.898;2022-10-22T14:46:26;5.70;;;1.97;;
11865;SDS011;5992;52.744;6.898;2022-10-22T14:49:55;4.20;;;2.00;;
11865;SDS011;5992;52.744;6.898;2022-10-22T14:52:55;4.57;;;1.73;;
11865;SDS011;5992;52.744;6.898;2022-10-22T14:56:11;2.45;;;1.40;;
11865;SDS011;5992;52.744;6.898;2022-10-22T14:59:26;3.60;;;1.40;;
11865;SDS011;5992;52.744;6.898;2022-10-22T15:03:00;3.53;;;1.40;;
11865;SDS011;5992;52.744;6.898;2022-10-22T15:06:19;1.47;;;0.83;;
11865;SDS011;5992;52.744;6.898;2022-10-22T15:09:35;3.57;;;1.10;;
11865;SDS011;5992;52.744;6.898;2022-10-22T15:12:38;1.95;;;1.10;;
11865;SDS011;5992;52.744;6.898;2022-10-22T15:16:09;2.53;;;1.47;;
11865;SDS011;5992;52.744;6.898;2022-10-22T15:19:22;4.50;;;1.37;;
11865;SDS011;5992;52.744;6.898;2022-10-22T15:22:51;4.03;;;1.17;;
11865;SDS011;5992;52.744;6.898;2022-10-22T15:25:51;4.20;;;2.10;;
11865;SDS011;5992;52.744;6.898;2022-10-22T15:29:04;4.30;;;1.27;;
11865;SDS011;5992;52.744;6.898;2022-10-22T15:32:07;7.15;;;1.90;;
11865;SDS011;5992;52.744;6.898;2022-10-22T15:35:42;7.20;;;1.70;;
11865;SDS011;5992;52.744;6.898;2022-10-22T15:38:58;5.90;;;1.70;;
11865;SDS011;5992;52.744;6.898;2022-10-22T15:42:14;6.27;;;1.37;;
11865;SDS011;5992;52.744;6.898;2022-10-22T15:45:26;5.83;;;1.27;;
11865;SDS011;5992;52.744;6.898;2022-10-22T15:48:54;4.70;;;1.70;;
11865;SDS011;5992;52.744;6.898;2022-10-22T15:51:55;3.70;;;1.30;;
11865;SDS011;5992;52.744;6.898;2022-10-22T15:55:23;5.30;;;2.17;;
11865;SDS011;5992;52.744;6.898;2022-10-22T15:58:23;7.73;;;1.77;;
11865;SDS011;5992;52.744;6.898;2022-10-22T16:01:38;3.17;;;1.43;;
11865;SDS011;5992;52.744;6.898;2022-10-22T16:05:06;7.07;;;1.57;;
11865;SDS011;5992;52.744;6.898;2022-10-22T16:08:08;3.15;;;1.15;;
11865;SDS011;5992;52.744;6.898;2022-10-22T16:11:35;2.27;;;1.23;;
11865;SDS011;5992;52.744;6.898;2022-10-22T16:14:48;1.77;;;1.37;;
11865;SDS011;5992;52.744;6.898;2022-10-22T16:18:15;8.80;;;2.17;;
11865;SDS011;5992;52.744;6.898;2022-10-22T16:21:19;2.97;;;1.40;;
11865;SDS011;5992;52.744;6.898;2022-10-22T16:24:43;3.67;;;1.27;;
11865;SDS011;5992;52.744;6.898;2022-10-22T16:28:01;1.13;;;1.00;;
11865;SDS011;5992;52.744;6.898;2022-10-22T16:31:19;4.25;;;1.20;;
11865;SDS011;5992;52.744;6.898;2022-10-22T16:34:24;2.25;;;0.90;;
11865;SDS011;5992;52.744;6.898;2022-10-22T16:37:54;3.87;;;1.57;;
11865;SDS011;5992;52.744;6.898;2022-10-22T16:41:06;1.63;;;0.83;;
11865;SDS011;5992;52.744;6.898;2022-10-22T16:44:30;4.40;;;1.03;;
11865;SDS011;5992;52.744;6.898;2022-10-22T16:47:30;3.17;;;1.30;;
11865;SDS011;5992;52.744;6.898;2022-10-22T16:50:45;2.50;;;1.17;;
11865;SDS011;5992;52.744;6.898;2022-10-22T16:53:49;2.00;;;1.10;;
11865;SDS011;5992;52.744;6.898;2022-10-22T16:57:18;3.60;;;1.30;;
11865;SDS011;5992;52.744;6.898;2022-10-22T17:00:33;1.97;;;1.07;;
11865;SDS011;5992;52.744;6.898;2022-10-22T17:03:48;3.00;;;1.10;;
11865;SDS011;5992;52.744;6.898;2022-10-22T17:06:51;1.67;;;1.03;;
11865;SDS011;5992;52.744;6.898;2022-10-22T17:10:16;3.57;;;1.60;;
11865;SDS011;5992;52.744;6.898;2022-10-22T17:13:33;3.83;;;1.43;;
11865;SDS011;5992;52.744;6.898;2022-10-22T17:16:56;3.13;;;1.20;;
11865;SDS011;5992;52.744;6.898;2022-10-22T17:19:56;4.60;;;1.70;;
11865;SDS011;5992;52.744;6.898;2022-10-22T17:23:23;2.33;;;1.50;;
11865;SDS011;5992;52.744;6.898;2022-10-22T17:26:38;3.13;;;1.37;;
11865;SDS011;5992;52.744;6.898;2022-10-22T17:30:09;4.55;;;1.45;;
11865;SDS011;5992;52.744;6.898;2022-10-22T17:33:20;1.53;;;1.37;;
11865;SDS011;5992;52.744;6.898;2022-10-22T17:36:38;2.33;;;1.30;;
11865;SDS011;5992;52.744;6.898;2022-10-22T17:39:41;3.13;;;1.70;;
11865;SDS011;5992;52.744;6.898;2022-10-22T17:42:59;3.57;;;0.83;;
11865;SDS011;5992;52.744;6.898;2022-10-22T17:46:07;3.57;;;1.33;;
11865;SDS011;5992;52.744;6.898;2022-10-22T17:49:35;2.80;;;1.10;;
11865;SDS011;5992;52.744;6.898;2022-10-22T17:52:47;2.13;;;1.13;;
11865;SDS011;5992;52.744;6.898;2022-10-22T17:56:03;8.00;;;1.90;;
11865;SDS011;5992;52.744;6.898;2022-10-22T17:59:20;3.33;;;1.80;;
11865;SDS011;5992;52.744;6.898;2022-10-22T18:02:38;1.67;;;1.30;;
11865;SDS011;5992;52.744;6.898;2022-10-22T18:06:04;4.53;;;1.87;;
11865;SDS011;5992;52.744;6.898;2022-10-22T18:09:17;3.20;;;1.20;;
11865;SDS011;5992;52.744;6.898;2022-10-22T18:12:44;3.90;;;1.80;;
11865;SDS011;5992;52.744;6.898;2022-10-22T18:16:02;3.53;;;1.40;;
11865;SDS011;5992;52.744;6.898;2022-10-22T18:19:30;6.13;;;1.93;;
11865;SDS011;5992;52.744;6.898;2022-10-22T18:22:45;4.07;;;1.60;;
11865;SDS011;5992;52.744;6.898;2022-10-22T18:26:05;2.87;;;1.63;;
11865;SDS011;5992;52.744;6.898;2022-10-22T18:29:19;4.15;;;2.05;;
11865;SDS011;5992;52.744;6.898;2022-10-22T18:32:32;3.67;;;1.90;;
11865;SDS011;5992;52.744;6.898;2022-10-22T18:35:51;4.67;;;1.63;;
11865;SDS011;5992;52.744;6.898;2022-10-22T18:39:24;3.53;;;1.97;;
11865;SDS011;5992;52.744;6.898;2022-10-22T18:42:27;5.73;;;2.30;;
11865;SDS011;5992;52.744;6.898;2022-10-22T18:45:46;2.87;;;2.00;;
11865;SDS011;5992;52.744;6.898;2022-10-22T18:49:01;3.45;;;2.20;;
11865;SDS011;5992;52.744;6.898;2022-10-22T18:52:15;4.00;;;2.43;;
11865;SDS011;5992;52.744;6.898;2022-10-22T18:55:34;4.80;;;2.30;;
11865;SDS011;5992;52.744;6.898;2022-10-22T18:59:04;3.10;;;2.03;;
11865;SDS011;5992;52.744;6.898;2022-10-22T19:02:07;4.10;;;2.20;;
11865;SDS011;5992;52.744;6.898;2022-10-22T19:05:42;5.47;;;2.40;;
11865;SDS011;5992;52.744;6.898;2022-10-22T19:08:59;6.40;;;3.20;;
11865;SDS011;5992;52.744;6.898;2022-10-22T19:12:29;2.80;;;2.15;;
11865;SDS011;5992;52.744;6.898;2022-10-22T19:15:32;4.37;;;2.27;;
11865;SDS011;5992;52.744;6.898;2022-10-22T19:18:50;2.70;;;2.00;;
11865;SDS011;5992;52.744;6.898;2022-10-22T19:22:02;5.70;;;3.00;;
11865;SDS011;5992;52.744;6.898;2022-10-22T19:25:34;5.50;;;2.65;;
11865;SDS011;5992;52.744;6.898;2022-10-22T19:28:53;4.60;;;2.10;;
11865;SDS011;5992;52.744;6.898;2022-10-22T19:32:20;3.75;;;2.20;;
11865;SDS011;5992;52.744;6.898;2022-10-22T19:35:20;4.50;;;2.60;;
11865;SDS011;5992;52.744;6.898;2022-10-22T19:38:50;5.60;;;2.97;;
11865;SDS011;5992;52.744;6.898;2022-10-22T19:42:12;4.43;;;2.50;;
11865;SDS011;5992;52.744;6.898;2022-10-22T19:45:43;4.77;;;2.50;;
11865;SDS011;5992;52.744;6.898;2022-10-22T19:52:02;5.50;;;3.10;;
11865;SDS011;5992;52.744;6.898;2022-10-22T19:55:14;4.00;;;2.87;;
11865;SDS011;5992;52.744;6.898;2022-10-22T19:58:33;3.60;;;2.40;;
11865;SDS011;5992;52.744;6.898;2022-10-22T20:01:52;5.07;;;2.07;;
11865;SDS011;5992;52.744;6.898;2022-10-22T20:05:07;5.23;;;2.40;;
11865;SDS011;5992;52.744;6.898;2022-10-22T20:08:11;4.25;;;2.40;;
11865;SDS011;5992;52.744;6.898;2022-10-22T20:11:30;3.93;;;2.73;;
11865;SDS011;5992;52.744;6.898;2022-10-22T20:14:34;8.50;;;3.23;;
11865;SDS011;5992;52.744;6.898;2022-10-22T20:21:12;4.90;;;2.90;;
11865;SDS011;5992;52.744;6.898;2022-10-22T20:24:36;7.80;;;2.00;;
11865;SDS011;5992;52.744;6.898;2022-10-22T20:27:36;5.47;;;2.67;;
11865;SDS011;5992;52.744;6.898;2022-10-22T20:31:01;3.43;;;2.23;;